Time;durP1;ratioP1;P1;durP2;ratioP2;P2;SDS_P1;SDS_P2;PMS_P1;PMS_P2;Temp;Humidity;BMP_temperature;BMP_pressure;BME280_temperature;BME280_humidity;BME280_pressure;Samples;Min_cycle;Max_cycle;Signal;HPM_P1;HPM_P2
2024/01/16 00:00:02;;;;;;;10.13;6.63;;;;;;;;;;683813;28;1599;-65
2024/01/16 00:00:25;;;;;;;10.95;6.40;;;;;;;;;;685088;28;774;-65
2024/01/16 00:00:45;;;;;;;9.93;6.63;;;;;;;;;;685118;28;1086;-64
2024/01/16 00:01:06;;;;;;;10.93;6.77;;;;;;;;;;683744;28;2720;-65
2024/01/16 00:01:26;;;;;;;11.73;6.78;;;;;;;;;;684235;28;4485;-65
2024/01/16 00:01:46;;;;;;;10.37;6.77;;;;;;;;;;685292;28;837;-65
2024/01/16 00:02:08;;;;;;;10.83;6.70;;;;;;;;;;684134;28;2239;-66
2024/01/16 00:02:29;;;;;;;11.75;6.88;;;;;;;;;;684705;28;1181;-65
2024/01/16 00:02:49;;;;;;;11.03;6.83;;;;;;;;;;683999;28;873;-65
2024/01/16 00:03:09;;;;;;;11.30;6.50;;;;;;;;;;683819;28;1596;-65
2024/01/16 00:03:29;;;;;;;11.20;6.67;;;;;;;;;;684937;28;853;-67
2024/01/16 00:03:50;;;;;;;11.67;7.10;;;;;;;;;;685144;28;936;-66
2024/01/16 00:04:10;;;;;;;11.80;6.50;;;;;;;;;;683069;28;4340;-66
2024/01/16 00:04:31;;;;;;;10.73;6.20;;;;;;;;;;684760;28;827;-66
2024/01/16 00:04:51;;;;;;;10.17;6.20;;;;;;;;;;685366;28;777;-65
2024/01/16 00:05:12;;;;;;;11.57;6.50;;;;;;;;;;683805;28;1785;-66
2024/01/16 00:05:33;;;;;;;10.05;6.28;;;;;;;;;;684521;28;869;-66
2024/01/16 00:05:53;;;;;;;11.53;6.43;;;;;;;;;;683686;28;1902;-65
2024/01/16 00:06:14;;;;;;;11.83;6.40;;;;;;;;;;684186;28;2256;-65
2024/01/16 00:06:38;;;;;;;11.80;6.20;;;;;;;;;;685033;28;861;-66
2024/01/16 00:06:59;;;;;;;11.18;6.40;;;;;;;;;;684865;28;984;-66
2024/01/16 00:07:20;;;;;;;10.60;6.43;;;;;;;;;;684542;28;4470;-65
2024/01/16 00:07:41;;;;;;;9.32;6.10;;;;;;;;;;690119;28;1281;-65
2024/01/16 00:08:02;;;;;;;10.80;6.50;;;;;;;;;;689313;28;1780;-65
2024/01/16 00:08:23;;;;;;;10.32;6.63;;;;;;;;;;690705;28;860;-65
2024/01/16 00:08:44;;;;;;;10.73;6.10;;;;;;;;;;690132;28;935;-65
2024/01/16 00:09:05;;;;;;;11.13;6.28;;;;;;;;;;689203;28;1862;-66
2024/01/16 00:09:25;;;;;;;10.88;6.53;;;;;;;;;;689225;28;837;-64
2024/01/16 00:09:46;;;;;;;11.15;6.70;;;;;;;;;;686985;28;897;-64
2024/01/16 00:10:07;;;;;;;9.15;6.50;;;;;;;;;;686671;28;1531;-65
2024/01/16 00:10:28;;;;;;;10.30;6.85;;;;;;;;;;687235;28;4303;-64
2024/01/16 00:10:48;;;;;;;11.43;6.40;;;;;;;;;;687371;28;1301;-65
2024/01/16 00:11:08;;;;;;;10.40;6.23;;;;;;;;;;685906;28;1757;-65
2024/01/16 00:11:28;;;;;;;10.10;6.57;;;;;;;;;;687624;28;790;-65
2024/01/16 00:11:49;;;;;;;10.30;6.80;;;;;;;;;;687452;28;928;-65
2024/01/16 00:12:09;;;;;;;10.30;6.50;;;;;;;;;;686781;28;955;-64
2024/01/16 00:12:29;;;;;;;11.88;6.65;;;;;;;;;;687320;28;991;-65
2024/01/16 00:12:49;;;;;;;12.17;6.90;;;;;;;;;;687775;28;790;-65
2024/01/16 00:13:10;;;;;;;11.67;6.90;;;;;;;;;;685541;28;4624;-64
2024/01/16 00:13:31;;;;;;;12.27;7.00;;;;;;;;;;684854;28;944;-64
2024/01/16 00:13:53;;;;;;;12.38;6.72;;;;;;;;;;684583;28;913;-63
2024/01/16 00:14:13;;;;;;;10.75;7.03;;;;;;;;;;683434;28;1479;-64
2024/01/16 00:14:34;;;;;;;10.23;6.55;;;;;;;;;;684989;28;822;-65
2024/01/16 00:14:55;;;;;;;11.35;6.63;;;;;;;;;;685068;28;928;-65
2024/01/16 00:15:15;;;;;;;12.13;6.73;;;;;;;;;;683696;28;2907;-65
2024/01/16 00:15:35;;;;;;;12.30;6.50;;;;;;;;;;684909;28;944;-65
2024/01/16 00:15:58;;;;;;;11.23;6.50;;;;;;;;;;685106;28;1212;-64
2024/01/16 00:16:19;;;;;;;10.07;6.50;;;;;;;;;;683222;28;4597;-65
2024/01/16 00:16:47;;;;;;;10.57;6.60;;;;;;;;;;684938;28;1264;-66
2024/01/16 00:17:07;;;;;;;10.40;6.68;;;;;;;;;;683628;28;1475;-66
2024/01/16 00:17:27;;;;;;;9.98;7.03;;;;;;;;;;685176;28;896;-66
2024/01/16 00:17:48;;;;;;;11.07;7.27;;;;;;;;;;684960;28;821;-65
2024/01/16 00:18:08;;;;;;;10.23;6.97;;;;;;;;;;683337;28;1843;-65
2024/01/16 00:18:29;;;;;;;11.33;7.13;;;;;;;;;;687464;28;1238;-65
2024/01/16 00:18:49;;;;;;;12.38;6.95;;;;;;;;;;687596;28;894;-64
2024/01/16 00:19:10;;;;;;;11.27;6.83;;;;;;;;;;682976;28;4572;-65
2024/01/16 00:19:30;;;;;;;10.63;7.15;;;;;;;;;;686896;28;1146;-65
2024/01/16 00:19:50;;;;;;;10.13;6.80;;;;;;;;;;686942;28;1289;-65
2024/01/16 00:20:11;;;;;;;10.57;6.75;;;;;;;;;;686593;28;2229;-64
2024/01/16 00:20:31;;;;;;;10.57;7.10;;;;;;;;;;687374;28;698;-65
2024/01/16 00:20:51;;;;;;;11.23;7.20;;;;;;;;;;686931;28;4090;-65
2024/01/16 00:21:11;;;;;;;11.43;7.05;;;;;;;;;;686535;28;2269;-64
2024/01/16 00:21:32;;;;;;;11.20;6.77;;;;;;;;;;687616;28;971;-65
2024/01/16 00:21:52;;;;;;;11.37;6.87;;;;;;;;;;687735;28;901;-65
2024/01/16 00:22:12;;;;;;;10.95;7.18;;;;;;;;;;685074;28;5214;-64
2024/01/16 00:22:32;;;;;;;12.10;7.40;;;;;;;;;;684911;28;791;-65
2024/01/16 00:22:53;;;;;;;11.23;7.20;;;;;;;;;;685074;28;1233;-65
2024/01/16 00:23:13;;;;;;;10.45;6.78;;;;;;;;;;683514;28;2440;-65
2024/01/16 00:23:33;;;;;;;11.77;7.30;;;;;;;;;;684367;28;1170;-65
2024/01/16 00:23:53;;;;;;;12.27;7.20;;;;;;;;;;684801;28;948;-65
2024/01/16 00:24:14;;;;;;;11.77;7.30;;;;;;;;;;683515;28;1469;-65
2024/01/16 00:24:34;;;;;;;10.90;7.50;;;;;;;;;;684623;28;1135;-64
2024/01/16 00:24:55;;;;;;;11.60;7.30;;;;;;;;;;682220;28;862;-64
2024/01/16 00:25:15;;;;;;;12.60;7.03;;;;;;;;;;683990;28;4275;-65
2024/01/16 00:25:35;;;;;;;11.20;7.00;;;;;;;;;;687384;28;858;-65
2024/01/16 00:25:56;;;;;;;11.05;7.00;;;;;;;;;;687619;28;1915;-65
2024/01/16 00:26:19;;;;;;;10.67;7.57;;;;;;;;;;685756;28;1857;-65
2024/01/16 00:26:40;;;;;;;11.50;7.78;;;;;;;;;;686745;28;960;-65
2024/01/16 00:27:00;;;;;;;11.73;7.47;;;;;;;;;;685253;28;980;-65
2024/01/16 00:27:21;;;;;;;13.10;7.53;;;;;;;;;;686700;28;1892;-65
2024/01/16 00:27:42;;;;;;;12.02;7.47;;;;;;;;;;687019;28;1272;-65
2024/01/16 00:28:02;;;;;;;13.75;7.60;;;;;;;;;;686362;28;1901;-66
2024/01/16 00:28:23;;;;;;;13.98;7.70;;;;;;;;;;688712;28;4385;-65
2024/01/16 00:28:43;;;;;;;11.80;7.10;;;;;;;;;;689871;28;831;-64
2024/01/16 00:29:03;;;;;;;11.40;6.97;;;;;;;;;;688749;28;2345;-66
2024/01/16 00:29:23;;;;;;;13.87;7.37;;;;;;;;;;687518;28;1253;-65
2024/01/16 00:29:44;;;;;;;14.85;7.53;;;;;;;;;;686938;28;933;-65
2024/01/16 00:30:05;;;;;;;14.67;7.73;;;;;;;;;;686200;28;2300;-64
2024/01/16 00:30:25;;;;;;;12.90;7.70;;;;;;;;;;684483;28;928;-65
2024/01/16 00:30:45;;;;;;;12.85;7.47;;;;;;;;;;684377;28;767;-65
2024/01/16 00:31:07;;;;;;;12.60;7.30;;;;;;;;;;681376;28;1844;-64
2024/01/16 00:31:28;;;;;;;11.85;7.43;;;;;;;;;;682514;28;4341;-65
2024/01/16 00:31:48;;;;;;;12.27;7.60;;;;;;;;;;686415;28;905;-65
2024/01/16 00:32:08;;;;;;;13.27;7.80;;;;;;;;;;685969;28;1712;-64
2024/01/16 00:32:28;;;;;;;12.47;7.93;;;;;;;;;;684702;28;917;-65
2024/01/16 00:32:48;;;;;;;14.53;7.90;;;;;;;;;;687573;28;1377;-65
2024/01/16 00:33:10;;;;;;;15.23;7.70;;;;;;;;;;685975;28;2356;-65
2024/01/16 00:33:30;;;;;;;12.80;7.47;;;;;;;;;;684649;28;893;-65
2024/01/16 00:33:50;;;;;;;12.83;7.70;;;;;;;;;;684929;28;729;-65
2024/01/16 00:34:11;;;;;;;13.77;7.67;;;;;;;;;;682881;28;4323;-65
2024/01/16 00:34:31;;;;;;;13.05;7.60;;;;;;;;;;679658;29;933;-65
2024/01/16 00:34:51;;;;;;;12.40;7.20;;;;;;;;;;683326;28;1433;-65
2024/01/16 00:35:11;;;;;;;13.27;7.10;;;;;;;;;;681759;28;2267;-65
2024/01/16 00:35:31;;;;;;;11.73;7.40;;;;;;;;;;686374;28;1238;-65
2024/01/16 00:35:52;;;;;;;12.50;7.67;;;;;;;;;;688358;28;1185;-65
2024/01/16 00:36:12;;;;;;;11.97;7.53;;;;;;;;;;686829;28;1844;-65
2024/01/16 00:36:32;;;;;;;12.55;7.72;;;;;;;;;;689966;28;973;-64
2024/01/16 00:36:52;;;;;;;13.13;7.50;;;;;;;;;;690459;28;893;-65
2024/01/16 00:37:13;;;;;;;11.50;7.40;;;;;;;;;;688109;28;4497;-65
2024/01/16 00:37:33;;;;;;;13.07;7.20;;;;;;;;;;689927;28;857;-65
2024/01/16 00:37:53;;;;;;;12.60;7.57;;;;;;;;;;685186;28;1255;-65
2024/01/16 00:38:13;;;;;;;12.57;7.63;;;;;;;;;;683709;28;2294;-64
2024/01/16 00:38:34;;;;;;;13.50;7.60;;;;;;;;;;684916;28;861;-64
2024/01/16 00:38:54;;;;;;;13.80;7.57;;;;;;;;;;684860;28;1194;-65
2024/01/16 00:39:14;;;;;;;12.37;7.03;;;;;;;;;;683642;28;2306;-65
2024/01/16 00:39:34;;;;;;;12.95;7.60;;;;;;;;;;684858;28;5974;-64
2024/01/16 00:39:55;;;;;;;13.80;7.83;;;;;;;;;;684542;28;913;-64
2024/01/16 00:40:15;;;;;;;13.80;7.93;;;;;;;;;;686116;28;4445;-65
2024/01/16 00:40:35;;;;;;;12.05;7.47;;;;;;;;;;690188;28;917;-64
2024/01/16 00:40:55;;;;;;;12.73;7.50;;;;;;;;;;690061;28;1270;-64
2024/01/16 00:41:16;;;;;;;12.60;7.57;;;;;;;;;;688996;28;2353;-65
2024/01/16 00:41:36;;;;;;;12.75;7.57;;;;;;;;;;689899;28;912;-65
2024/01/16 00:41:57;;;;;;;11.90;7.53;;;;;;;;;;690102;28;798;-65
2024/01/16 00:42:17;;;;;;;12.45;7.55;;;;;;;;;;686820;28;1107;-65
2024/01/16 00:42:38;;;;;;;12.40;7.90;;;;;;;;;;689944;28;980;-65
2024/01/16 00:42:58;;;;;;;11.95;7.90;;;;;;;;;;689737;28;1030;-65
2024/01/16 00:43:18;;;;;;;11.93;7.83;;;;;;;;;;688155;28;4290;-65
2024/01/16 00:43:38;;;;;;;12.90;8.23;;;;;;;;;;690096;28;968;-64
2024/01/16 00:43:59;;;;;;;13.18;8.00;;;;;;;;;;690346;28;821;-68
2024/01/16 00:44:19;;;;;;;12.70;8.00;;;;;;;;;;687078;28;1886;-65
2024/01/16 00:44:39;;;;;;;12.30;8.23;;;;;;;;;;688362;28;924;-65
2024/01/16 00:45:00;;;;;;;12.03;8.10;;;;;;;;;;687640;28;977;-64
2024/01/16 00:45:21;;;;;;;12.57;8.20;;;;;;;;;;687032;28;2253;-65
2024/01/16 00:45:41;;;;;;;13.18;7.88;;;;;;;;;;686993;28;810;-65
2024/01/16 00:46:01;;;;;;;15.27;8.33;;;;;;;;;;688753;28;1969;-65
2024/01/16 00:46:22;;;;;;;14.87;8.33;;;;;;;;;;688286;28;4311;-65
2024/01/16 00:46:42;;;;;;;14.43;7.88;;;;;;;;;;687327;28;948;-64
2024/01/16 00:47:02;;;;;;;12.53;7.67;;;;;;;;;;686733;28;1156;-65
2024/01/16 00:47:23;;;;;;;13.97;8.07;;;;;;;;;;686196;28;2373;-64
2024/01/16 00:47:43;;;;;;;12.75;7.53;;;;;;;;;;687393;28;874;-64
2024/01/16 00:48:05;;;;;;;12.37;7.90;;;;;;;;;;686353;28;2243;-66
2024/01/16 00:48:25;;;;;;;14.13;8.30;;;;;;;;;;685183;28;1036;-64
2024/01/16 00:48:46;;;;;;;14.85;8.20;;;;;;;;;;684100;28;1399;-64
2024/01/16 00:49:07;;;;;;;13.43;8.20;;;;;;;;;;682930;28;2733;-64
2024/01/16 00:49:28;;;;;;;13.50;8.02;;;;;;;;;;683545;28;4354;-69
2024/01/16 00:49:48;;;;;;;13.48;8.85;;;;;;;;;;683595;28;1183;-64
2024/01/16 00:50:09;;;;;;;13.70;8.80;;;;;;;;;;683681;28;1963;-64
2024/01/16 00:50:31;;;;;;;13.30;8.57;;;;;;;;;;685286;28;1317;-65
2024/01/16 00:50:51;;;;;;;12.68;8.48;;;;;;;;;;687221;28;948;-64
2024/01/16 00:51:11;;;;;;;12.30;7.90;;;;;;;;;;685503;28;2102;-65
2024/01/16 00:51:32;;;;;;;12.37;8.03;;;;;;;;;;687620;28;1257;-64
2024/01/16 00:51:52;;;;;;;13.05;8.38;;;;;;;;;;687539;28;893;-63
2024/01/16 00:52:12;;;;;;;14.33;8.97;;;;;;;;;;686246;28;4334;-65
2024/01/16 00:52:32;;;;;;;13.40;8.67;;;;;;;;;;687324;28;1219;-65
2024/01/16 00:52:53;;;;;;;11.60;8.15;;;;;;;;;;687175;28;814;-64
2024/01/16 00:53:13;;;;;;;11.83;7.97;;;;;;;;;;685919;28;2267;-64
2024/01/16 00:53:33;;;;;;;12.00;8.20;;;;;;;;;;687569;28;901;-63
2024/01/16 00:53:53;;;;;;;12.40;8.27;;;;;;;;;;687570;28;825;-65
2024/01/16 00:54:14;;;;;;;15.33;8.77;;;;;;;;;;685992;28;1617;-65
2024/01/16 00:54:34;;;;;;;14.87;8.73;;;;;;;;;;687866;28;877;-64
2024/01/16 00:54:54;;;;;;;13.63;8.90;;;;;;;;;;687687;28;1333;-65
2024/01/16 00:55:15;;;;;;;13.77;8.30;;;;;;;;;;685929;28;4411;-64
2024/01/16 00:55:35;;;;;;;15.07;8.97;;;;;;;;;;687552;28;917;-65
2024/01/16 00:55:55;;;;;;;14.90;9.13;;;;;;;;;;687640;28;1262;-64
2024/01/16 00:56:15;;;;;;;13.87;8.80;;;;;;;;;;688923;28;948;-65
2024/01/16 00:56:36;;;;;;;13.47;8.90;;;;;;;;;;689875;28;1278;-64
2024/01/16 00:56:59;;;;;;;12.77;8.98;;;;;;;;;;690009;28;957;-65
2024/01/16 00:57:19;;;;;;;12.95;8.80;;;;;;;;;;687894;28;1811;-66
2024/01/16 00:57:39;;;;;;;13.13;8.90;;;;;;;;;;690120;28;1369;-65
2024/01/16 00:58:00;;;;;;;12.60;8.97;;;;;;;;;;687564;28;913;-65
2024/01/16 00:58:23;;;;;;;14.40;9.10;;;;;;;;;;682652;28;4481;-65
2024/01/16 00:58:43;;;;;;;14.90;8.90;;;;;;;;;;684838;28;893;-65
2024/01/16 00:59:04;;;;;;;13.33;8.63;;;;;;;;;;683655;28;2759;-66
2024/01/16 00:59:24;;;;;;;13.60;8.73;;;;;;;;;;684060;28;916;-65
2024/01/16 00:59:44;;;;;;;15.23;9.05;;;;;;;;;;684641;28;940;-65
2024/01/16 01:00:05;;;;;;;14.40;9.27;;;;;;;;;;687016;28;1849;-64
2024/01/16 01:00:25;;;;;;;15.38;9.63;;;;;;;;;;691646;28;877;-64
2024/01/16 01:00:46;;;;;;;15.13;9.70;;;;;;;;;;689492;28;1113;-64
2024/01/16 01:01:06;;;;;;;14.65;9.70;;;;;;;;;;689098;28;1885;-64
2024/01/16 01:01:26;;;;;;;13.50;9.50;;;;;;;;;;687389;28;4394;-64
2024/01/16 01:01:46;;;;;;;15.67;10.03;;;;;;;;;;683958;28;1181;-65
2024/01/16 01:02:09;;;;;;;16.42;10.00;;;;;;;;;;683292;28;2270;-65
2024/01/16 01:02:29;;;;;;;15.70;10.25;;;;;;;;;;683779;28;1255;-64
2024/01/16 01:02:50;;;;;;;16.03;9.90;;;;;;;;;;683964;28;1427;-64
2024/01/16 01:03:10;;;;;;;16.63;9.57;;;;;;;;;;683310;28;1679;-64
2024/01/16 01:03:30;;;;;;;15.52;9.77;;;;;;;;;;687212;28;928;-64
2024/01/16 01:03:51;;;;;;;14.83;9.60;;;;;;;;;;687169;28;1170;-65
2024/01/16 01:04:11;;;;;;;18.00;9.95;;;;;;;;;;686133;28;4484;-64
2024/01/16 01:04:33;;;;;;;18.37;10.10;;;;;;;;;;687318;28;1070;-65
2024/01/16 01:04:53;;;;;;;16.95;9.93;;;;;;;;;;688028;28;979;-65
2024/01/16 01:05:13;;;;;;;15.35;10.05;;;;;;;;;;686165;28;1579;-65
2024/01/16 01:05:33;;;;;;;14.87;9.67;;;;;;;;;;689551;28;1556;-66
2024/01/16 01:05:53;;;;;;;16.20;9.70;;;;;;;;;;689865;28;1906;-64
2024/01/16 01:06:14;;;;;;;14.93;10.32;;;;;;;;;;689202;28;2264;-65
2024/01/16 01:06:35;;;;;;;15.43;10.27;;;;;;;;;;689795;28;906;-65
2024/01/16 01:06:55;;;;;;;16.35;9.65;;;;;;;;;;690176;28;1011;-64
2024/01/16 01:07:15;;;;;;;16.80;9.60;;;;;;;;;;687283;28;4319;-65
2024/01/16 01:07:36;;;;;;;16.83;10.90;;;;;;;;;;684976;28;953;-65
2024/01/16 01:07:56;;;;;;;15.50;10.57;;;;;;;;;;684352;28;893;-67
2024/01/16 01:08:17;;;;;;;18.27;10.73;;;;;;;;;;683893;28;1951;-67
2024/01/16 01:08:37;;;;;;;17.50;10.50;;;;;;;;;;684935;28;1247;-65
2024/01/16 01:08:59;;;;;;;16.85;10.60;;;;;;;;;;684882;28;815;-65
2024/01/16 01:09:19;;;;;;;18.13;10.63;;;;;;;;;;683422;28;1838;-65
2024/01/16 01:09:40;;;;;;;17.23;10.93;;;;;;;;;;684492;28;837;-66
2024/01/16 01:10:00;;;;;;;16.55;10.52;;;;;;;;;;684499;28;807;-65
2024/01/16 01:10:20;;;;;;;17.10;10.80;;;;;;;;;;683333;28;4389;-65
2024/01/16 01:10:40;;;;;;;17.53;10.90;;;;;;;;;;684847;28;1011;-65
2024/01/16 01:11:01;;;;;;;16.63;10.53;;;;;;;;;;684752;28;822;-68
2024/01/16 01:11:21;;;;;;;16.03;10.33;;;;;;;;;;684029;28;1571;-65
2024/01/16 01:11:41;;;;;;;18.07;10.63;;;;;;;;;;685113;28;897;-65
2024/01/16 01:12:01;;;;;;;16.13;10.47;;;;;;;;;;684247;28;1179;-65
2024/01/16 01:12:22;;;;;;;17.17;10.90;;;;;;;;;;683784;28;1706;-66
2024/01/16 01:12:43;;;;;;;16.63;10.90;;;;;;;;;;685118;28;1003;-64
2024/01/16 01:13:03;;;;;;;16.60;10.77;;;;;;;;;;684662;28;937;-66
2024/01/16 01:13:25;;;;;;;15.27;10.32;;;;;;;;;;685396;28;4739;-66
2024/01/16 01:13:45;;;;;;;16.30;10.55;;;;;;;;;;687385;28;976;-65
2024/01/16 01:14:05;;;;;;;17.40;10.88;;;;;;;;;;685383;28;1869;-66
2024/01/16 01:14:28;;;;;;;18.93;11.20;;;;;;;;;;687644;28;897;-67
2024/01/16 01:14:49;;;;;;;16.88;10.55;;;;;;;;;;686971;28;1024;-64
2024/01/16 01:15:10;;;;;;;15.00;10.45;;;;;;;;;;686491;28;2329;-66
2024/01/16 01:15:30;;;;;;;18.88;11.10;;;;;;;;;;687490;28;1417;-65
2024/01/16 01:15:50;;;;;;;19.87;10.77;;;;;;;;;;687459;28;1242;-66
2024/01/16 01:16:11;;;;;;;17.08;10.40;;;;;;;;;;685030;28;4500;-66
2024/01/16 01:16:31;;;;;;;16.27;10.30;;;;;;;;;;684748;28;925;-65
2024/01/16 01:16:51;;;;;;;18.87;10.50;;;;;;;;;;684625;28;3745;-65
2024/01/16 01:17:11;;;;;;;17.98;10.80;;;;;;;;;;683227;28;1470;-64
2024/01/16 01:17:32;;;;;;;18.60;11.13;;;;;;;;;;685040;28;1222;-65
2024/01/16 01:17:52;;;;;;;18.13;11.23;;;;;;;;;;684833;28;1424;-65
2024/01/16 01:18:13;;;;;;;18.17;11.40;;;;;;;;;;683388;28;895;-65
2024/01/16 01:18:33;;;;;;;17.20;10.90;;;;;;;;;;684995;28;932;-65
2024/01/16 01:18:53;;;;;;;17.13;10.97;;;;;;;;;;684945;28;1430;-66
2024/01/16 01:19:13;;;;;;;16.67;10.57;;;;;;;;;;682701;28;4417;-65
2024/01/16 01:19:34;;;;;;;17.93;11.10;;;;;;;;;;685070;28;872;-65
2024/01/16 01:19:54;;;;;;;17.40;10.70;;;;;;;;;;684550;28;1387;-65
2024/01/16 01:20:14;;;;;;;16.80;10.40;;;;;;;;;;683390;28;2533;-66
2024/01/16 01:20:35;;;;;;;17.85;10.57;;;;;;;;;;684353;28;763;-65
2024/01/16 01:20:56;;;;;;;17.53;10.77;;;;;;;;;;684815;28;1070;-64
2024/01/16 01:21:16;;;;;;;17.92;11.25;;;;;;;;;;683595;28;1470;-65
2024/01/16 01:21:36;;;;;;;19.10;10.97;;;;;;;;;;685036;28;771;-64
2024/01/16 01:21:57;;;;;;;18.80;10.82;;;;;;;;;;684742;28;1263;-65
2024/01/16 01:22:17;;;;;;;17.67;10.80;;;;;;;;;;684063;28;4616;-66
2024/01/16 01:22:37;;;;;;;17.63;11.00;;;;;;;;;;687489;28;1004;-64
2024/01/16 01:22:58;;;;;;;15.97;10.57;;;;;;;;;;687717;28;1153;-65
2024/01/16 01:23:18;;;;;;;17.38;11.05;;;;;;;;;;686137;28;1979;-64
2024/01/16 01:23:38;;;;;;;16.67;10.80;;;;;;;;;;687514;28;1325;-65
2024/01/16 01:23:59;;;;;;;17.10;10.67;;;;;;;;;;687837;28;944;-65
2024/01/16 01:24:19;;;;;;;17.50;11.13;;;;;;;;;;686897;28;1823;-65
2024/01/16 01:24:39;;;;;;;17.27;10.87;;;;;;;;;;687054;28;869;-66
2024/01/16 01:25:00;;;;;;;17.73;10.20;;;;;;;;;;687742;28;909;-64
2024/01/16 01:25:20;;;;;;;15.82;10.60;;;;;;;;;;686711;28;4383;-64
2024/01/16 01:25:41;;;;;;;16.35;10.63;;;;;;;;;;687420;28;932;-65
2024/01/16 01:26:02;;;;;;;16.17;10.50;;;;;;;;;;687493;28;1962;-64
2024/01/16 01:26:22;;;;;;;16.70;10.80;;;;;;;;;;686596;28;1156;-65
2024/01/16 01:26:43;;;;;;;16.90;10.93;;;;;;;;;;686949;28;1294;-64
2024/01/16 01:27:03;;;;;;;15.73;10.50;;;;;;;;;;687772;28;943;-64
2024/01/16 01:27:27;;;;;;;17.67;10.63;;;;;;;;;;687651;28;1492;-63
2024/01/16 01:27:47;;;;;;;15.52;9.98;;;;;;;;;;687606;28;1231;-65
2024/01/16 01:28:07;;;;;;;15.23;9.90;;;;;;;;;;686723;28;2276;-64
2024/01/16 01:28:27;;;;;;;15.73;10.13;;;;;;;;;;687059;28;5342;-65
2024/01/16 01:28:48;;;;;;;17.10;10.80;;;;;;;;;;686574;28;1255;-65
2024/01/16 01:29:08;;;;;;;16.57;11.10;;;;;;;;;;686544;28;888;-65
2024/01/16 01:29:28;;;;;;;16.50;10.87;;;;;;;;;;687462;28;928;-66
2024/01/16 01:29:48;;;;;;;18.53;11.00;;;;;;;;;;687011;28;944;-65
2024/01/16 01:30:12;;;;;;;19.30;11.07;;;;;;;;;;688967;28;1894;-65
2024/01/16 01:30:32;;;;;;;16.27;10.80;;;;;;;;;;687123;28;1195;-65
2024/01/16 01:30:53;;;;;;;17.40;10.90;;;;;;;;;;686794;28;995;-66
2024/01/16 01:31:13;;;;;;;16.77;11.30;;;;;;;;;;685814;28;4402;-65
2024/01/16 01:31:33;;;;;;;17.70;10.93;;;;;;;;;;685356;28;995;-65
2024/01/16 01:31:54;;;;;;;18.03;11.00;;;;;;;;;;684264;28;901;-65
2024/01/16 01:32:14;;;;;;;17.27;11.07;;;;;;;;;;684091;28;1518;-65
2024/01/16 01:32:34;;;;;;;18.55;10.85;;;;;;;;;;685748;28;783;-65
2024/01/16 01:32:54;;;;;;;17.23;10.70;;;;;;;;;;684750;28;983;-65
2024/01/16 01:33:15;;;;;;;18.93;10.83;;;;;;;;;;684376;28;2263;-67
2024/01/16 01:33:35;;;;;;;18.00;10.52;;;;;;;;;;685644;28;885;-65
2024/01/16 01:33:55;;;;;;;17.60;10.70;;;;;;;;;;684776;28;1183;-65
2024/01/16 01:34:15;;;;;;;17.53;10.80;;;;;;;;;;684323;28;4320;-65
2024/01/16 01:34:35;;;;;;;16.93;10.90;;;;;;;;;;688047;28;1178;-65
2024/01/16 01:34:56;;;;;;;15.40;10.90;;;;;;;;;;687848;28;927;-65
2024/01/16 01:35:17;;;;;;;18.90;11.50;;;;;;;;;;687537;28;1749;-64
2024/01/16 01:35:37;;;;;;;18.83;11.40;;;;;;;;;;688046;28;1319;-66
2024/01/16 01:35:57;;;;;;;17.97;11.20;;;;;;;;;;687608;28;1231;-66
2024/01/16 01:36:17;;;;;;;17.83;11.27;;;;;;;;;;687034;28;1701;-68
2024/01/16 01:36:38;;;;;;;16.93;10.97;;;;;;;;;;687334;28;836;-65
2024/01/16 01:36:58;;;;;;;16.73;10.67;;;;;;;;;;687971;28;904;-71
2024/01/16 01:37:18;;;;;;;15.68;9.48;;;;;;;;;;686225;28;4509;-65
2024/01/16 01:37:38;;;;;;;16.33;10.60;;;;;;;;;;687307;28;1070;-65
2024/01/16 01:37:58;;;;;;;18.70;10.53;;;;;;;;;;688064;28;1295;-65
2024/01/16 01:38:19;;;;;;;17.20;10.67;;;;;;;;;;685745;28;1758;-66
2024/01/16 01:38:39;;;;;;;16.43;10.80;;;;;;;;;;687636;28;896;-66
2024/01/16 01:38:59;;;;;;;17.00;10.93;;;;;;;;;;687754;28;1441;-65
2024/01/16 01:39:19;;;;;;;17.02;10.45;;;;;;;;;;686148;28;5437;-66
2024/01/16 01:39:40;;;;;;;16.77;10.60;;;;;;;;;;687144;28;3665;-66
2024/01/16 01:40:00;;;;;;;17.25;10.98;;;;;;;;;;687810;28;940;-66
2024/01/16 01:40:21;;;;;;;16.93;10.63;;;;;;;;;;684830;28;5286;-65
2024/01/16 01:40:43;;;;;;;16.97;10.50;;;;;;;;;;685591;28;921;-65
2024/01/16 01:41:03;;;;;;;16.00;9.70;;;;;;;;;;684843;28;1078;-67
2024/01/16 01:41:24;;;;;;;15.93;10.57;;;;;;;;;;683224;28;1531;-64
2024/01/16 01:41:44;;;;;;;17.93;10.67;;;;;;;;;;683866;28;1023;-64
2024/01/16 01:42:04;;;;;;;16.25;10.27;;;;;;;;;;685294;28;856;-64
2024/01/16 01:42:24;;;;;;;17.90;10.37;;;;;;;;;;683773;28;1474;-64
2024/01/16 01:42:45;;;;;;;18.53;10.33;;;;;;;;;;685205;28;797;-64
2024/01/16 01:43:21;;;;;;;16.10;10.52;;;;;;;;;;684466;28;2109;-65
2024/01/16 01:43:42;;;;;;;17.55;10.15;;;;;;;;;;686712;28;5067;-64
2024/01/16 01:44:02;;;;;;;16.40;10.20;;;;;;;;;;688211;28;920;-64
2024/01/16 01:44:24;;;;;;;16.70;10.03;;;;;;;;;;689348;28;1022;-65
2024/01/16 01:44:44;;;;;;;17.55;10.52;;;;;;;;;;689406;28;950;-64
2024/01/16 01:45:05;;;;;;;16.90;10.37;;;;;;;;;;689520;28;921;-65
2024/01/16 01:45:25;;;;;;;18.33;10.77;;;;;;;;;;685839;28;2186;-65
2024/01/16 01:45:58;;;;;;;18.25;9.90;;;;;;;;;;689038;28;1194;-64
2024/01/16 01:46:19;;;;;;;16.45;10.43;;;;;;;;;;685899;28;4763;-64
2024/01/16 01:46:40;;;;;;;16.42;10.23;;;;;;;;;;687228;28;1318;-64
2024/01/16 01:47:00;;;;;;;16.63;10.52;;;;;;;;;;685068;28;838;-63
2024/01/16 01:47:20;;;;;;;18.60;9.87;;;;;;;;;;683999;28;2196;-67
2024/01/16 01:47:43;;;;;;;18.07;9.73;;;;;;;;;;682433;29;993;-65
2024/01/16 01:48:06;;;;;;;15.75;9.90;;;;;;;;;;683228;28;1234;-66
2024/01/16 01:48:27;;;;;;;13.68;9.43;;;;;;;;;;684598;28;1743;-66
2024/01/16 01:48:47;;;;;;;14.07;9.73;;;;;;;;;;685964;28;869;-65
2024/01/16 01:49:08;;;;;;;14.10;9.80;;;;;;;;;;686953;28;2550;-66
2024/01/16 01:49:31;;;;;;;15.90;10.00;;;;;;;;;;685337;28;4531;-65
2024/01/16 01:49:51;;;;;;;16.73;10.02;;;;;;;;;;686485;28;1377;-66
2024/01/16 01:50:12;;;;;;;18.02;10.30;;;;;;;;;;686814;28;1774;-66
2024/01/16 01:50:32;;;;;;;16.23;9.70;;;;;;;;;;688175;28;806;-66
2024/01/16 01:50:52;;;;;;;15.50;9.43;;;;;;;;;;687668;28;961;-65
2024/01/16 01:51:13;;;;;;;15.00;9.80;;;;;;;;;;685813;28;1882;-66
2024/01/16 01:51:34;;;;;;;15.05;9.50;;;;;;;;;;684970;28;1063;-64
2024/01/16 01:51:54;;;;;;;15.75;9.93;;;;;;;;;;685097;28;869;-65
2024/01/16 01:52:15;;;;;;;13.97;9.60;;;;;;;;;;685131;28;4891;-67
2024/01/16 01:52:38;;;;;;;15.88;9.68;;;;;;;;;;688806;28;849;-64
2024/01/16 01:52:58;;;;;;;15.50;9.80;;;;;;;;;;686466;28;957;-64
2024/01/16 01:53:18;;;;;;;15.90;9.63;;;;;;;;;;686903;28;2332;-64
2024/01/16 01:53:41;;;;;;;15.15;9.18;;;;;;;;;;687947;28;936;-65
2024/01/16 01:54:01;;;;;;;13.88;10.02;;;;;;;;;;687602;28;938;-65
2024/01/16 01:54:22;;;;;;;15.48;10.43;;;;;;;;;;686980;28;1860;-65
2024/01/16 01:54:43;;;;;;;14.77;9.88;;;;;;;;;;688047;28;1147;-64
2024/01/16 01:55:05;;;;;;;16.25;9.50;;;;;;;;;;687721;28;889;-66
2024/01/16 01:55:27;;;;;;;14.00;9.65;;;;;;;;;;685740;28;4569;-65
2024/01/16 01:55:47;;;;;;;14.95;9.23;;;;;;;;;;684897;28;1031;-65
2024/01/16 01:56:08;;;;;;;14.97;9.37;;;;;;;;;;685110;28;727;-65
2024/01/16 01:56:28;;;;;;;15.38;9.68;;;;;;;;;;685254;28;942;-66
2024/01/16 01:56:49;;;;;;;15.00;9.67;;;;;;;;;;685146;28;1569;-64
2024/01/16 01:57:10;;;;;;;14.07;9.27;;;;;;;;;;683816;28;2197;-66
2024/01/16 01:57:30;;;;;;;15.55;9.63;;;;;;;;;;685523;28;1274;-65
2024/01/16 01:57:50;;;;;;;17.40;9.77;;;;;;;;;;687511;28;940;-64
2024/01/16 01:58:11;;;;;;;18.90;9.67;;;;;;;;;;685953;28;4516;-65
2024/01/16 01:58:32;;;;;;;17.13;9.18;;;;;;;;;;690665;28;893;-64
2024/01/16 01:58:53;;;;;;;16.05;9.25;;;;;;;;;;688181;28;952;-65
2024/01/16 01:59:14;;;;;;;15.40;9.18;;;;;;;;;;686422;28;1016;-66
2024/01/16 01:59:34;;;;;;;15.20;8.90;;;;;;;;;;685165;28;917;-65
2024/01/16 01:59:55;;;;;;;15.43;9.23;;;;;;;;;;684599;28;929;-64
2024/01/16 02:00:18;;;;;;;14.52;9.13;;;;;;;;;;683190;28;1860;-65
2024/01/16 02:00:39;;;;;;;16.35;8.57;;;;;;;;;;680545;29;1497;-65
2024/01/16 02:01:00;;;;;;;15.73;8.83;;;;;;;;;;681540;28;1499;-65
2024/01/16 02:01:21;;;;;;;14.10;8.35;;;;;;;;;;682911;28;4291;-66
2024/01/16 02:01:42;;;;;;;15.32;8.75;;;;;;;;;;688069;28;952;-64
2024/01/16 02:02:02;;;;;;;15.27;9.20;;;;;;;;;;687799;28;779;-65
2024/01/16 02:02:23;;;;;;;15.43;9.33;;;;;;;;;;686238;28;1702;-66
2024/01/16 02:02:43;;;;;;;15.40;8.85;;;;;;;;;;685522;28;820;-65
2024/01/16 02:03:04;;;;;;;15.70;9.23;;;;;;;;;;687839;28;806;-66
2024/01/16 02:03:26;;;;;;;15.35;9.65;;;;;;;;;;686716;28;2261;-65
2024/01/16 02:03:47;;;;;;;14.70;8.88;;;;;;;;;;687332;28;906;-65
2024/01/16 02:04:08;;;;;;;15.33;9.07;;;;;;;;;;687626;28;1269;-65
2024/01/16 02:04:29;;;;;;;15.98;9.38;;;;;;;;;;685972;28;4342;-65
2024/01/16 02:04:49;;;;;;;14.40;9.00;;;;;;;;;;687444;28;790;-64
2024/01/16 02:05:09;;;;;;;15.88;8.80;;;;;;;;;;684456;28;1934;-64
2024/01/16 02:05:30;;;;;;;15.83;8.83;;;;;;;;;;684898;28;914;-65
2024/01/16 02:05:50;;;;;;;15.95;9.48;;;;;;;;;;685107;28;1906;-65